sensor_id;sensor_type;location;lat;lon;timestamp;pressure;altitude;pressure_sealevel;temperature;humidity
58373;BME280;44177;43.356;27.672;2023-04-16T00:01:34;97888.13;;;10.65;95.13
58373;BME280;44177;43.356;27.672;2023-04-16T00:03:59;97897.81;;;10.63;95.80
58373;BME280;44177;43.356;27.672;2023-04-16T00:06:25;97897.00;;;10.62;95.85
58373;BME280;44177;43.356;27.672;2023-04-16T00:08:51;97900.53;;;10.63;96.32
58373;BME280;44177;43.356;27.672;2023-04-16T00:11:17;97893.41;;;10.58;96.48
58373;BME280;44177;43.356;27.672;2023-04-16T00:13:42;97897.44;;;10.64;96.71
58373;BME280;44177;43.356;27.672;2023-04-16T00:16:08;97892.78;;;10.65;97.22
58373;BME280;44177;43.356;27.672;2023-04-16T00:18:33;97895.59;;;10.68;97.15
58373;BME280;44177;43.356;27.672;2023-04-16T00:20:59;97887.94;;;10.58;97.74
58373;BME280;44177;43.356;27.672;2023-04-16T00:23:24;97888.19;;;10.69;97.86
58373;BME280;44177;43.356;27.672;2023-04-16T00:25:50;97893.84;;;10.60;97.78
58373;BME280;44177;43.356;27.672;2023-04-16T00:28:18;97899.09;;;10.69;97.78
58373;BME280;44177;43.356;27.672;2023-04-16T00:30:43;97891.44;;;10.74;97.26
58373;BME280;44177;43.356;27.672;2023-04-16T00:33:08;97891.88;;;10.77;97.73
58373;BME280;44177;43.356;27.672;2023-04-16T00:35:34;97893.81;;;10.76;97.56
58373;BME280;44177;43.356;27.672;2023-04-16T00:38:00;97887.66;;;10.79;97.94
58373;BME280;44177;43.356;27.672;2023-04-16T00:40:28;97879.66;;;10.70;98.10
58373;BME280;44177;43.356;27.672;2023-04-16T00:42:54;97899.34;;;10.80;97.97
58373;BME280;44177;43.356;27.672;2023-04-16T00:45:20;97899.34;;;10.80;98.62
58373;BME280;44177;43.356;27.672;2023-04-16T00:47:45;97883.78;;;10.80;98.18
58373;BME280;44177;43.356;27.672;2023-04-16T00:50:11;97896.53;;;10.92;97.74
58373;BME280;44177;43.356;27.672;2023-04-16T00:52:37;97889.19;;;10.96;97.29
58373;BME280;44177;43.356;27.672;2023-04-16T00:55:03;97888.41;;;10.96;97.28
58373;BME280;44177;43.356;27.672;2023-04-16T00:57:30;97893.22;;;11.02;96.70
58373;BME280;44177;43.356;27.672;2023-04-16T00:59:56;97890.41;;;10.99;96.96
58373;BME280;44177;43.356;27.672;2023-04-16T01:02:22;97869.94;;;10.89;96.99
58373;BME280;44177;43.356;27.672;2023-04-16T01:04:48;97892.16;;;11.07;97.27
58373;BME280;44177;43.356;27.672;2023-04-16T01:07:14;97888.63;;;11.06;97.39
58373;BME280;44177;43.356;27.672;2023-04-16T01:09:40;97883.44;;;11.01;98.01
58373;BME280;44177;43.356;27.672;2023-04-16T01:12:05;97896.75;;;11.03;98.40
58373;BME280;44177;43.356;27.672;2023-04-16T01:14:31;97891.22;;;10.99;98.21
58373;BME280;44177;43.356;27.672;2023-04-16T01:17:01;97880.84;;;10.89;98.81
58373;BME280;44177;43.356;27.672;2023-04-16T01:19:27;97888.19;;;11.04;98.05
58373;BME280;44177;43.356;27.672;2023-04-16T01:21:53;97881.88;;;11.00;98.15
58373;BME280;44177;43.356;27.672;2023-04-16T01:24:18;97887.25;;;10.97;98.48
58373;BME280;44177;43.356;27.672;2023-04-16T01:26:44;97884.09;;;10.95;98.65
58373;BME280;44177;43.356;27.672;2023-04-16T01:29:10;97870.63;;;10.86;98.59
58373;BME280;44177;43.356;27.672;2023-04-16T01:31:35;97887.97;;;10.94;98.77
58373;BME280;44177;43.356;27.672;2023-04-16T01:34:00;97882.50;;;10.94;98.70
58373;BME280;44177;43.356;27.672;2023-04-16T01:36:26;97884.03;;;10.91;98.95
58373;BME280;44177;43.356;27.672;2023-04-16T01:38:51;97876.91;;;10.86;98.99
58373;BME280;44177;43.356;27.672;2023-04-16T01:41:17;97881.69;;;10.93;98.91
58373;BME280;44177;43.356;27.672;2023-04-16T01:43:42;97874.75;;;10.96;98.42
58373;BME280;44177;43.356;27.672;2023-04-16T01:46:16;97875.78;;;11.07;98.32
58373;BME280;44177;43.356;27.672;2023-04-16T01:48:42;97871.25;;;11.15;98.04
58373;BME280;44177;43.356;27.672;2023-04-16T01:51:08;97851.88;;;11.00;97.85
58373;BME280;44177;43.356;27.672;2023-04-16T01:53:34;97875.44;;;11.28;97.14
58373;BME280;44177;43.356;27.672;2023-04-16T01:56:00;97872.19;;;11.22;96.86
58373;BME280;44177;43.356;27.672;2023-04-16T01:58:27;97869.66;;;11.33;96.64
58373;BME280;44177;43.356;27.672;2023-04-16T02:00:54;97876.56;;;11.27;96.57
58373;BME280;44177;43.356;27.672;2023-04-16T02:03:20;97875.44;;;11.28;97.08
58373;BME280;44177;43.356;27.672;2023-04-16T02:05:45;97879.31;;;11.27;96.71
58373;BME280;44177;43.356;27.672;2023-04-16T02:08:11;97880.03;;;11.24;97.12
58373;BME280;44177;43.356;27.672;2023-04-16T02:10:37;97868.25;;;11.20;96.98
58373;BME280;44177;43.356;27.672;2023-04-16T02:13:02;97866.81;;;11.26;96.70
58373;BME280;44177;43.356;27.672;2023-04-16T02:15:28;97861.19;;;11.19;96.71
58373;BME280;44177;43.356;27.672;2023-04-16T02:17:53;97859.69;;;11.21;96.79
58373;BME280;44177;43.356;27.672;2023-04-16T02:20:21;97864.38;;;11.21;97.09
58373;BME280;44177;43.356;27.672;2023-04-16T02:22:46;97859.47;;;11.30;96.31
58373;BME280;44177;43.356;27.672;2023-04-16T02:25:12;97860.94;;;11.24;96.82
58373;BME280;44177;43.356;27.672;2023-04-16T02:27:38;97866.09;;;11.29;96.47
58373;BME280;44177;43.356;27.672;2023-04-16T02:30:04;97846.69;;;11.15;96.28
58373;BME280;44177;43.356;27.672;2023-04-16T02:32:30;97864.44;;;11.25;96.08
58373;BME280;44177;43.356;27.672;2023-04-16T02:34:55;97853.00;;;11.19;96.35
58373;BME280;44177;43.356;27.672;2023-04-16T02:37:21;97850.41;;;11.26;96.17
58373;BME280;44177;43.356;27.672;2023-04-16T02:39:47;97851.28;;;11.30;95.65
58373;BME280;44177;43.356;27.672;2023-04-16T02:42:14;97858.47;;;11.38;94.77
58373;BME280;44177;43.356;27.672;2023-04-16T02:44:40;97851.50;;;11.41;94.60
58373;BME280;44177;43.356;27.672;2023-04-16T02:47:06;97852.28;;;11.42;93.77
58373;BME280;44177;43.356;27.672;2023-04-16T02:49:31;97849.13;;;11.40;93.42
58373;BME280;44177;43.356;27.672;2023-04-16T02:51:57;97846.81;;;11.42;93.34
58373;BME280;44177;43.356;27.672;2023-04-16T02:54:22;97852.34;;;11.45;93.27
58373;BME280;44177;43.356;27.672;2023-04-16T02:56:48;97855.31;;;11.36;93.38
58373;BME280;44177;43.356;27.672;2023-04-16T02:59:13;97856.91;;;11.37;93.59
58373;BME280;44177;43.356;27.672;2023-04-16T03:01:39;97850.69;;;11.41;93.44
58373;BME280;44177;43.356;27.672;2023-04-16T03:04:04;97858.47;;;11.38;93.77
58373;BME280;44177;43.356;27.672;2023-04-16T03:06:29;97858.69;;;11.49;92.90
58373;BME280;44177;43.356;27.672;2023-04-16T03:08:56;97861.13;;;11.54;92.02
58373;BME280;44177;43.356;27.672;2023-04-16T03:11:21;97855.22;;;11.52;91.82
58373;BME280;44177;43.356;27.672;2023-04-16T03:13:47;97856.38;;;11.51;91.94
58373;BME280;44177;43.356;27.672;2023-04-16T03:16:13;97853.66;;;11.51;91.37
58373;BME280;44177;43.356;27.672;2023-04-16T03:18:38;97861.91;;;11.55;91.66
58373;BME280;44177;43.356;27.672;2023-04-16T03:21:04;97854.94;;;11.58;91.83
58373;BME280;44177;43.356;27.672;2023-04-16T03:23:29;97854.63;;;11.63;91.12
58373;BME280;44177;43.356;27.672;2023-04-16T03:25:55;97855.44;;;11.63;91.02
58373;BME280;44177;43.356;27.672;2023-04-16T03:28:20;97864.41;;;11.64;90.73
58373;BME280;44177;43.356;27.672;2023-04-16T03:30:50;97872.91;;;11.59;91.32
58373;BME280;44177;43.356;27.672;2023-04-16T03:33:17;97869.97;;;11.48;91.89
58373;BME280;44177;43.356;27.672;2023-04-16T03:35:42;97875.72;;;11.43;92.44
58373;BME280;44177;43.356;27.672;2023-04-16T03:38:08;97878.00;;;11.41;92.69
58373;BME280;44177;43.356;27.672;2023-04-16T03:40:33;97872.47;;;11.37;93.08
58373;BME280;44177;43.356;27.672;2023-04-16T03:42:58;97872.72;;;11.48;92.82
58373;BME280;44177;43.356;27.672;2023-04-16T03:45:24;97874.00;;;11.54;92.30
58373;BME280;44177;43.356;27.672;2023-04-16T03:47:49;97880.59;;;11.53;91.82
58373;BME280;44177;43.356;27.672;2023-04-16T03:50:19;97879.59;;;11.61;91.58
58373;BME280;44177;43.356;27.672;2023-04-16T03:52:45;97885.63;;;11.71;90.95
58373;BME280;44177;43.356;27.672;2023-04-16T03:55:11;97891.34;;;11.85;90.86
58373;BME280;44177;43.356;27.672;2023-04-16T03:57:38;97880.44;;;11.85;89.96
58373;BME280;44177;43.356;27.672;2023-04-16T04:00:04;97888.47;;;11.97;89.29
58373;BME280;44177;43.356;27.672;2023-04-16T04:02:29;97885.03;;;12.00;89.04
58373;BME280;44177;43.356;27.672;2023-04-16T04:04:55;97891.63;;;11.99;89.09
58373;BME280;44177;43.356;27.672;2023-04-16T04:07:20;97879.34;;;11.90;89.20
58373;BME280;44177;43.356;27.672;2023-04-16T04:09:45;97883.88;;;12.02;89.68
58373;BME280;44177;43.356;27.672;2023-04-16T04:12:11;97875.34;;;12.07;89.06
58373;BME280;44177;43.356;27.672;2023-04-16T04:14:37;97883.25;;;12.12;88.65
58373;BME280;44177;43.356;27.672;2023-04-16T04:17:07;97883.50;;;12.26;89.02
58373;BME280;44177;43.356;27.672;2023-04-16T04:19:33;97875.38;;;12.30;88.64
58373;BME280;44177;43.356;27.672;2023-04-16T04:21:59;97891.63;;;12.46;88.00
58373;BME280;44177;43.356;27.672;2023-04-16T04:24:24;97883.31;;;12.62;87.07
58373;BME280;44177;43.356;27.672;2023-04-16T04:26:51;97886.88;;;12.66;87.00
58373;BME280;44177;43.356;27.672;2023-04-16T04:29:16;97897.50;;;12.71;87.63
58373;BME280;44177;43.356;27.672;2023-04-16T04:31:42;97890.47;;;12.70;87.85
58373;BME280;44177;43.356;27.672;2023-04-16T04:34:07;97885.34;;;12.69;87.87
58373;BME280;44177;43.356;27.672;2023-04-16T04:36:33;97891.13;;;12.63;88.50
58373;BME280;44177;43.356;27.672;2023-04-16T04:38:58;97884.84;;;12.63;88.25
58373;BME280;44177;43.356;27.672;2023-04-16T04:41:23;97896.59;;;12.63;87.97
58373;BME280;44177;43.356;27.672;2023-04-16T04:43:51;97906.22;;;12.80;88.55
58373;BME280;44177;43.356;27.672;2023-04-16T04:46:16;97908.63;;;12.82;88.96
58373;BME280;44177;43.356;27.672;2023-04-16T04:48:42;97903.06;;;12.78;88.29
58373;BME280;44177;43.356;27.672;2023-04-16T04:51:07;97905.28;;;12.69;89.14
58373;BME280;44177;43.356;27.672;2023-04-16T04:53:33;97922.59;;;12.77;89.36
58373;BME280;44177;43.356;27.672;2023-04-16T04:55:58;97927.34;;;12.80;90.11
58373;BME280;44177;43.356;27.672;2023-04-16T04:58:24;97929.66;;;12.78;92.70
58373;BME280;44177;43.356;27.672;2023-04-16T05:00:49;97910.56;;;12.55;95.85
58373;BME280;44177;43.356;27.672;2023-04-16T05:03:19;97914.06;;;12.32;97.96
58373;BME280;44177;43.356;27.672;2023-04-16T05:05:45;97906.19;;;12.27;98.20
58373;BME280;44177;43.356;27.672;2023-04-16T05:08:11;97899.94;;;12.26;97.31
58373;BME280;44177;43.356;27.672;2023-04-16T05:10:36;97909.50;;;12.40;97.02
58373;BME280;44177;43.356;27.672;2023-04-16T05:13:01;97913.53;;;12.46;97.19
58373;BME280;44177;43.356;27.672;2023-04-16T05:15:27;97921.41;;;12.51;97.14
58373;BME280;44177;43.356;27.672;2023-04-16T05:17:52;97910.91;;;12.53;96.77
58373;BME280;44177;43.356;27.672;2023-04-16T05:20:23;97920.75;;;12.58;96.71
58373;BME280;44177;43.356;27.672;2023-04-16T05:22:51;97922.81;;;12.64;96.66
58373;BME280;44177;43.356;27.672;2023-04-16T05:25:17;97908.38;;;12.68;97.00
58373;BME280;44177;43.356;27.672;2023-04-16T05:27:42;97914.50;;;12.84;97.15
58373;BME280;44177;43.356;27.672;2023-04-16T05:30:08;97908.34;;;12.91;97.01
58373;BME280;44177;43.356;27.672;2023-04-16T05:32:35;97912.19;;;13.13;96.68
58373;BME280;44177;43.356;27.672;2023-04-16T05:35:01;97906.47;;;13.25;95.82
58373;BME280;44177;43.356;27.672;2023-04-16T05:37:26;97904.75;;;13.40;95.30
58373;BME280;44177;43.356;27.672;2023-04-16T05:39:52;97903.19;;;13.43;94.33
58373;BME280;44177;43.356;27.672;2023-04-16T05:42:18;97878.63;;;13.50;93.77
58373;BME280;44177;43.356;27.672;2023-04-16T05:44:43;97892.97;;;13.74;94.05
58373;BME280;44177;43.356;27.672;2023-04-16T05:47:09;97904.53;;;13.90;93.94
58373;BME280;44177;43.356;27.672;2023-04-16T05:49:35;97897.97;;;14.02;93.04
58373;BME280;44177;43.356;27.672;2023-04-16T05:52:04;97899.34;;;14.23;92.51
58373;BME280;44177;43.356;27.672;2023-04-16T05:54:30;97878.59;;;14.26;91.89
58373;BME280;44177;43.356;27.672;2023-04-16T05:56:55;97895.69;;;14.57;92.13
58373;BME280;44177;43.356;27.672;2023-04-16T05:59:21;97893.47;;;14.69;89.92
58373;BME280;44177;43.356;27.672;2023-04-16T06:01:46;97887.34;;;14.91;89.12
58373;BME280;44177;43.356;27.672;2023-04-16T06:04:11;97892.56;;;15.14;88.53
58373;BME280;44177;43.356;27.672;2023-04-16T06:06:37;97880.50;;;15.33;87.02
58373;BME280;44177;43.356;27.672;2023-04-16T06:09:04;97880.94;;;15.42;86.03
58373;BME280;44177;43.356;27.672;2023-04-16T06:11:29;97885.31;;;15.58;86.16
58373;BME280;44177;43.356;27.672;2023-04-16T06:13:55;97888.50;;;15.78;86.39
58373;BME280;44177;43.356;27.672;2023-04-16T06:16:20;97880.69;;;15.87;86.73
58373;BME280;44177;43.356;27.672;2023-04-16T06:18:46;97891.34;;;16.07;85.78
58373;BME280;44177;43.356;27.672;2023-04-16T06:21:11;97880.34;;;16.18;84.93
58373;BME280;44177;43.356;27.672;2023-04-16T06:23:37;97883.09;;;16.36;84.44
58373;BME280;44177;43.356;27.672;2023-04-16T06:26:04;97886.66;;;16.54;83.39
58373;BME280;44177;43.356;27.672;2023-04-16T06:28:29;97877.59;;;16.68;82.12
58373;BME280;44177;43.356;27.672;2023-04-16T06:30:55;97874.03;;;16.79;81.75
58373;BME280;44177;43.356;27.672;2023-04-16T06:33:21;97881.53;;;16.60;76.75
58373;BME280;44177;43.356;27.672;2023-04-16T06:35:46;97883.88;;;16.65;78.64
58373;BME280;44177;43.356;27.672;2023-04-16T06:38:12;97878.72;;;17.07;77.90
58373;BME280;44177;43.356;27.672;2023-04-16T06:40:38;97882.63;;;17.17;76.19
58373;BME280;44177;43.356;27.672;2023-04-16T06:43:03;97886.22;;;17.07;73.71
58373;BME280;44177;43.356;27.672;2023-04-16T06:45:29;97890.16;;;16.98;74.49
58373;BME280;44177;43.356;27.672;2023-04-16T06:47:54;97891.34;;;16.83;77.07
58373;BME280;44177;43.356;27.672;2023-04-16T06:50:26;97900.41;;;16.80;76.86
58373;BME280;44177;43.356;27.672;2023-04-16T06:52:55;97901.19;;;16.55;71.68
58373;BME280;44177;43.356;27.672;2023-04-16T06:55:21;97902.00;;;16.45;74.00
58373;BME280;44177;43.356;27.672;2023-04-16T06:57:46;97902.00;;;16.41;73.23
58373;BME280;44177;43.356;27.672;2023-04-16T07:00:12;97892.94;;;16.44;73.91
58373;BME280;44177;43.356;27.672;2023-04-16T07:02:37;97884.28;;;16.60;72.27
58373;BME280;44177;43.356;27.672;2023-04-16T07:05:03;97889.38;;;16.80;72.41
58373;BME280;44177;43.356;27.672;2023-04-16T07:07:29;97901.16;;;17.05;73.71
58373;BME280;44177;43.356;27.672;2023-04-16T07:09:55;97889.97;;;17.52;72.14
58373;BME280;44177;43.356;27.672;2023-04-16T07:12:20;97878.81;;;17.85;69.04
58373;BME280;44177;43.356;27.672;2023-04-16T07:14:46;97891.31;;;18.08;67.86
58373;BME280;44177;43.356;27.672;2023-04-16T07:17:11;97882.44;;;18.31;65.63
58373;BME280;44177;43.356;27.672;2023-04-16T07:19:37;97889.38;;;18.57;62.83
58373;BME280;44177;43.356;27.672;2023-04-16T07:22:03;97890.47;;;19.09;61.39
58373;BME280;44177;43.356;27.672;2023-04-16T07:24:28;97871.50;;;19.11;58.99
58373;BME280;44177;43.356;27.672;2023-04-16T07:26:54;97874.66;;;19.44;59.75
58373;BME280;44177;43.356;27.672;2023-04-16T07:29:19;97874.19;;;19.80;56.89
58373;BME280;44177;43.356;27.672;2023-04-16T07:31:45;97869.78;;;20.14;55.46
58373;BME280;44177;43.356;27.672;2023-04-16T07:34:10;97854.69;;;20.66;54.64
58373;BME280;44177;43.356;27.672;2023-04-16T07:36:36;97874.66;;;20.81;52.80
58373;BME280;44177;43.356;27.672;2023-04-16T07:39:03;97863.25;;;20.51;51.79
58373;BME280;44177;43.356;27.672;2023-04-16T07:41:29;97862.53;;;20.47;53.77
58373;BME280;44177;43.356;27.672;2023-04-16T07:43:55;97859.13;;;20.12;55.81
58373;BME280;44177;43.356;27.672;2023-04-16T07:46:20;97856.31;;;19.88;55.15
58373;BME280;44177;43.356;27.672;2023-04-16T07:48:46;97846.25;;;19.71;56.23
58373;BME280;44177;43.356;27.672;2023-04-16T07:51:11;97857.00;;;19.34;56.23
58373;BME280;44177;43.356;27.672;2023-04-16T07:53:37;97846.41;;;18.94;58.82
58373;BME280;44177;43.356;27.672;2023-04-16T07:56:02;97845.59;;;18.90;56.95
58373;BME280;44177;43.356;27.672;2023-04-16T07:58:28;97842.66;;;19.12;59.02
58373;BME280;44177;43.356;27.672;2023-04-16T08:00:53;97851.69;;;19.16;57.36
58373;BME280;44177;43.356;27.672;2023-04-16T08:03:19;97853.31;;;19.45;58.43
58373;BME280;44177;43.356;27.672;2023-04-16T08:05:44;97850.78;;;19.57;57.21
58373;BME280;44177;43.356;27.672;2023-04-16T08:08:10;97850.13;;;19.46;58.65
58373;BME280;44177;43.356;27.672;2023-04-16T08:10:35;97856.94;;;19.38;60.25
58373;BME280;44177;43.356;27.672;2023-04-16T08:13:01;97852.25;;;19.35;58.75
58373;BME280;44177;43.356;27.672;2023-04-16T08:15:26;97850.97;;;19.74;59.54
58373;BME280;44177;43.356;27.672;2023-04-16T08:17:52;97854.28;;;20.44;58.76
58373;BME280;44177;43.356;27.672;2023-04-16T08:20:18;97823.84;;;21.28;58.28
58373;BME280;44177;43.356;27.672;2023-04-16T08:22:44;97851.69;;;21.81;50.97
58373;BME280;44177;43.356;27.672;2023-04-16T08:25:10;97834.78;;;21.92;51.82
58373;BME280;44177;43.356;27.672;2023-04-16T08:27:36;97835.91;;;22.11;52.75
58373;BME280;44177;43.356;27.672;2023-04-16T08:30:02;97838.81;;;22.40;53.01
58373;BME280;44177;43.356;27.672;2023-04-16T08:32:27;97833.19;;;21.74;49.69
58373;BME280;44177;43.356;27.672;2023-04-16T08:34:53;97845.47;;;21.17;51.91
58373;BME280;44177;43.356;27.672;2023-04-16T08:37:18;97846.38;;;20.90;51.79
58373;BME280;44177;43.356;27.672;2023-04-16T08:39:44;97847.66;;;20.85;52.28
58373;BME280;44177;43.356;27.672;2023-04-16T08:42:33;97835.56;;;20.75;52.42
58373;BME280;44177;43.356;27.672;2023-04-16T08:45:12;97842.63;;;21.00;51.68
58373;BME280;44177;43.356;27.672;2023-04-16T08:47:40;97826.59;;;20.64;51.01
58373;BME280;44177;43.356;27.672;2023-04-16T08:50:07;97832.66;;;21.23;52.72
58373;BME280;44177;43.356;27.672;2023-04-16T08:52:37;97825.00;;;21.10;49.37
58373;BME280;44177;43.356;27.672;2023-04-16T08:55:12;97818.81;;;21.03;51.64
58373;BME280;44177;43.356;27.672;2023-04-16T08:57:45;97812.06;;;20.60;52.47
58373;BME280;44177;43.356;27.672;2023-04-16T09:00:12;97830.13;;;20.68;52.36
58373;BME280;44177;43.356;27.672;2023-04-16T09:02:38;97821.94;;;20.85;50.55
58373;BME280;44177;43.356;27.672;2023-04-16T09:05:06;97814.97;;;20.96;52.76
58373;BME280;44177;43.356;27.672;2023-04-16T09:07:32;97829.28;;;20.71;50.43
58373;BME280;44177;43.356;27.672;2023-04-16T09:09:58;97824.41;;;20.55;49.72
58373;BME280;44177;43.356;27.672;2023-04-16T09:12:24;97814.97;;;20.29;51.31
58373;BME280;44177;43.356;27.672;2023-04-16T09:14:50;97828.47;;;20.94;51.17
58373;BME280;44177;43.356;27.672;2023-04-16T09:17:17;97814.50;;;21.58;49.90
58373;BME280;44177;43.356;27.672;2023-04-16T09:19:46;97793.50;;;22.73;47.98
58373;BME280;44177;43.356;27.672;2023-04-16T09:22:11;97793.94;;;22.71;46.30
58373;BME280;44177;43.356;27.672;2023-04-16T09:24:37;97786.47;;;23.27;44.04
58373;BME280;44177;43.356;27.672;2023-04-16T09:27:07;97801.19;;;23.92;41.70
58373;BME280;44177;43.356;27.672;2023-04-16T09:29:37;97789.19;;;23.83;41.51
58373;BME280;44177;43.356;27.672;2023-04-16T09:32:07;97793.16;;;24.20;43.43
58373;BME280;44177;43.356;27.672;2023-04-16T09:34:34;97797.97;;;24.55;39.84
58373;BME280;44177;43.356;27.672;2023-04-16T09:37:17;97778.00;;;24.91;40.50
58373;BME280;44177;43.356;27.672;2023-04-16T09:39:43;97779.22;;;25.13;39.88
58373;BME280;44177;43.356;27.672;2023-04-16T09:42:10;97780.38;;;24.45;39.32
58373;BME280;44177;43.356;27.672;2023-04-16T09:44:36;97769.34;;;23.68;39.83
58373;BME280;44177;43.356;27.672;2023-04-16T09:47:08;97755.34;;;24.32;40.31
58373;BME280;44177;43.356;27.672;2023-04-16T09:49:40;97768.75;;;25.26;40.59
58373;BME280;44177;43.356;27.672;2023-04-16T09:54:54;97759.06;;;26.12;38.24
58373;BME280;44177;43.356;27.672;2023-04-16T09:57:20;97749.16;;;26.39;37.12
58373;BME280;44177;43.356;27.672;2023-04-16T10:00:08;97754.59;;;25.74;38.52
58373;BME280;44177;43.356;27.672;2023-04-16T10:02:34;97745.09;;;26.59;39.48
58373;BME280;44177;43.356;27.672;2023-04-16T10:05:03;97743.25;;;26.84;35.49
58373;BME280;44177;43.356;27.672;2023-04-16T10:07:32;97740.13;;;26.26;36.79
58373;BME280;44177;43.356;27.672;2023-04-16T10:09:58;97740.91;;;25.04;39.09
58373;BME280;44177;43.356;27.672;2023-04-16T10:12:24;97743.34;;;25.02;40.76
58373;BME280;44177;43.356;27.672;2023-04-16T10:14:49;97721.09;;;25.93;38.82
58373;BME280;44177;43.356;27.672;2023-04-16T10:17:15;97737.44;;;25.53;37.96
58373;BME280;44177;43.356;27.672;2023-04-16T10:19:41;97741.38;;;24.80;36.63
58373;BME280;44177;43.356;27.672;2023-04-16T10:22:07;97741.50;;;24.41;37.46
58373;BME280;44177;43.356;27.672;2023-04-16T10:24:33;97730.91;;;24.01;39.01
58373;BME280;44177;43.356;27.672;2023-04-16T10:26:59;97731.22;;;24.16;39.02
58373;BME280;44177;43.356;27.672;2023-04-16T10:29:26;97732.28;;;23.71;40.45
58373;BME280;44177;43.356;27.672;2023-04-16T10:31:54;97735.72;;;23.23;41.18
58373;BME280;44177;43.356;27.672;2023-04-16T10:34:20;97737.44;;;23.17;42.63
58373;BME280;44177;43.356;27.672;2023-04-16T10:36:50;97728.47;;;23.64;42.43
58373;BME280;44177;43.356;27.672;2023-04-16T10:39:19;97728.31;;;24.20;41.53
58373;BME280;44177;43.356;27.672;2023-04-16T10:41:45;97724.31;;;24.78;39.86
58373;BME280;44177;43.356;27.672;2023-04-16T10:44:11;97723.34;;;25.26;41.72
58373;BME280;44177;43.356;27.672;2023-04-16T10:46:41;97720.06;;;25.49;41.55
58373;BME280;44177;43.356;27.672;2023-04-16T10:49:24;97722.00;;;25.80;41.04
58373;BME280;44177;43.356;27.672;2023-04-16T10:56:50;97695.38;;;25.16;41.67
58373;BME280;44177;43.356;27.672;2023-04-16T10:59:20;97712.03;;;25.29;42.66
58373;BME280;44177;43.356;27.672;2023-04-16T11:01:57;97720.22;;;25.23;42.16
58373;BME280;44177;43.356;27.672;2023-04-16T11:15:16;97717.94;;;24.07;41.18
58373;BME280;44177;43.356;27.672;2023-04-16T11:17:50;97734.22;;;24.44;44.01
58373;BME280;44177;43.356;27.672;2023-04-16T11:20:20;97722.47;;;24.27;40.78
58373;BME280;44177;43.356;27.672;2023-04-16T11:22:50;97724.50;;;24.26;40.77
58373;BME280;44177;43.356;27.672;2023-04-16T11:25:27;97726.75;;;23.93;40.88
58373;BME280;44177;43.356;27.672;2023-04-16T11:27:56;97714.31;;;23.72;39.38
58373;BME280;44177;43.356;27.672;2023-04-16T11:30:33;97722.66;;;23.72;40.70
58373;BME280;44177;43.356;27.672;2023-04-16T11:33:04;97713.31;;;23.65;40.39
58373;BME280;44177;43.356;27.672;2023-04-16T11:35:30;97720.56;;;23.76;41.18
58373;BME280;44177;43.356;27.672;2023-04-16T11:37:56;97696.69;;;23.88;43.19
58373;BME280;44177;43.356;27.672;2023-04-16T11:40:22;97711.22;;;23.70;39.23
58373;BME280;44177;43.356;27.672;2023-04-16T11:42:47;97716.22;;;23.36;41.18
58373;BME280;44177;43.356;27.672;2023-04-16T11:45:13;97706.28;;;23.09;40.94
58373;BME280;44177;43.356;27.672;2023-04-16T11:47:45;97707.13;;;23.48;41.55
58373;BME280;44177;43.356;27.672;2023-04-16T11:50:18;97707.44;;;23.63;40.33
58373;BME280;44177;43.356;27.672;2023-04-16T11:52:44;97702.19;;;23.78;37.71
58373;BME280;44177;43.356;27.672;2023-04-16T11:55:10;97696.94;;;24.28;38.82
58373;BME280;44177;43.356;27.672;2023-04-16T11:57:36;97703.25;;;24.64;35.09
58373;BME280;44177;43.356;27.672;2023-04-16T12:00:02;97699.66;;;24.77;34.47
58373;BME280;44177;43.356;27.672;2023-04-16T12:05:36;97710.16;;;24.95;31.81
58373;BME280;44177;43.356;27.672;2023-04-16T12:08:08;97715.31;;;24.39;32.88
58373;BME280;44177;43.356;27.672;2023-04-16T12:10:35;97721.13;;;23.71;33.52
58373;BME280;44177;43.356;27.672;2023-04-16T12:13:15;97732.78;;;23.14;39.51
58373;BME280;44177;43.356;27.672;2023-04-16T12:18:13;97756.19;;;21.95;47.07
58373;BME280;44177;43.356;27.672;2023-04-16T12:20:41;97771.72;;;21.56;48.31
58373;BME280;44177;43.356;27.672;2023-04-16T12:23:06;97779.31;;;20.55;51.38
58373;BME280;44177;43.356;27.672;2023-04-16T12:25:33;97774.31;;;20.22;52.46
58373;BME280;44177;43.356;27.672;2023-04-16T12:27:58;97779.78;;;19.75;53.88
58373;BME280;44177;43.356;27.672;2023-04-16T12:30:25;97781.81;;;19.43;54.48
58373;BME280;44177;43.356;27.672;2023-04-16T12:32:53;97763.97;;;19.20;54.86
58373;BME280;44177;43.356;27.672;2023-04-16T12:35:37;97752.66;;;18.73;56.17
58373;BME280;44177;43.356;27.672;2023-04-16T12:38:02;97754.56;;;18.41;58.13
58373;BME280;44177;43.356;27.672;2023-04-16T12:40:28;97765.53;;;18.49;58.64
58373;BME280;44177;43.356;27.672;2023-04-16T12:42:54;97771.94;;;18.42;58.32
58373;BME280;44177;43.356;27.672;2023-04-16T12:45:19;97759.81;;;18.28;58.92
58373;BME280;44177;43.356;27.672;2023-04-16T12:47:46;97769.69;;;18.26;59.84
58373;BME280;44177;43.356;27.672;2023-04-16T12:50:11;97760.34;;;18.16;60.06
58373;BME280;44177;43.356;27.672;2023-04-16T12:52:37;97738.22;;;18.20;59.78
58373;BME280;44177;43.356;27.672;2023-04-16T12:55:02;97749.91;;;19.07;57.59
58373;BME280;44177;43.356;27.672;2023-04-16T12:57:28;97750.09;;;19.51;56.16
58373;BME280;44177;43.356;27.672;2023-04-16T12:59:55;97745.53;;;19.92;55.04
58373;BME280;44177;43.356;27.672;2023-04-16T13:02:21;97737.44;;;20.05;53.05
58373;BME280;44177;43.356;27.672;2023-04-16T13:04:47;97741.28;;;20.11;51.20
58373;BME280;44177;43.356;27.672;2023-04-16T13:07:13;97726.78;;;20.27;51.91
58373;BME280;44177;43.356;27.672;2023-04-16T13:09:38;97742.59;;;20.27;51.34
58373;BME280;44177;43.356;27.672;2023-04-16T13:12:04;97734.91;;;20.14;52.06